KSYN/SYN METAR and TAF weather

Enter ICAO airport designator
Station Type Date Time Source
KSYN METAR 2021/01/16 02:55 UTC NOAA

KSYN 160255Z AUTO 34010G16KT 10SM BKN010 OVC042 01/00 A2972 RMK AO2 60001 T00110000


Station Type Date Time Source
KSYN Decoded METAR 2021/01/16 02:55 UTC NOAA

Stanton, Stanton Airfield, MN, United States (KSYN) 44-28-31N 093-00-58W
Jan 15, 2021 - 09:55 PM EST / 2021.01.16 0255 UTC
Wind: from the NNW (340 degrees) at 12 MPH (10 KT) gusting to 18 MPH (16 KT):0
Visibility: 10 mile(s):0
Sky conditions: overcast
Temperature: 34.0 F (1.1 C)
Windchill: 24 F (-4 C):1
Dew Point: 32.0 F (0.0 C)
Relative Humidity: 92%
Pressure (altimeter): 29.72 in. Hg (1006 hPa)
ob: KSYN 160255Z AUTO 34010G16KT 10SM BKN010 OVC042 01/00 A2972 RMK AO2 60001 T00110000
cycle: 3

Station Type Date Time Source
KSYN TAF UTC NOAA

Error!

Example: see airport list